createdAt,value
2022-12-18T00:04:58.629Z,100719.84
2022-12-18T00:10:01.626Z,100718.66
2022-12-18T00:15:05.040Z,100726.59
2022-12-18T00:20:09.515Z,100737.81
2022-12-18T00:25:12.473Z,100740.67
2022-12-18T00:30:15.662Z,100748.02
2022-12-18T00:35:18.894Z,100751.30
2022-12-18T00:40:21.884Z,100762.58
2022-12-18T00:45:31.638Z,100771.93
2022-12-18T00:50:34.608Z,100775.95
2022-12-18T00:55:40.683Z,100781.88
2022-12-18T01:00:44.358Z,100790.55
2022-12-18T01:05:47.416Z,100798.19
2022-12-18T01:10:50.679Z,100797.08
2022-12-18T01:15:53.738Z,100800.45
2022-12-18T01:20:56.803Z,100808.90
2022-12-18T01:26:04.885Z,100820.42
2022-12-18T01:31:29.665Z,100825.96
2022-12-18T01:36:36.813Z,100832.29
2022-12-18T01:41:59.037Z,100833.27
2022-12-18T01:47:02.132Z,100833.71
2022-12-18T01:52:05.149Z,100839.59
2022-12-18T01:57:08.562Z,100844.61
2022-12-18T02:02:12.928Z,100842.90
2022-12-18T02:08:03.726Z,100846.12
2022-12-18T02:13:23.839Z,100849.96
2022-12-18T02:18:36.769Z,100855.67
2022-12-18T02:23:55.942Z,100860.77
2022-12-18T02:29:22.897Z,100870.15
2022-12-18T02:34:32.776Z,100878.55
2022-12-18T02:39:38.169Z,100874.27
2022-12-18T02:44:50.956Z,100877.96
2022-12-18T02:50:15.920Z,100886.20
2022-12-18T02:55:59.631Z,100893.09
2022-12-18T03:01:24.329Z,100896.75
2022-12-18T03:06:48.894Z,100904.13
2022-12-18T03:12:25.554Z,100912.77
2022-12-18T03:17:32.243Z,100920.83
2022-12-18T03:22:38.623Z,100924.23
2022-12-18T03:27:47.993Z,100925.65
2022-12-18T03:33:24.972Z,100936.95
2022-12-18T03:38:28.124Z,100945.02
2022-12-18T03:43:53.353Z,100946.17
2022-12-18T03:49:41.280Z,100955.86
2022-12-18T03:54:46.634Z,100967.02
2022-12-18T03:59:57.347Z,100975.71
2022-12-18T04:05:06.147Z,100981.39
2022-12-18T04:10:11.381Z,100987.22
2022-12-18T04:15:14.816Z,100988.63
2022-12-18T04:20:18.837Z,100995.27
2022-12-18T04:25:21.648Z,100997.95
2022-12-18T04:30:24.630Z,101003.96
2022-12-18T04:35:28.311Z,101019.80
2022-12-18T04:40:31.290Z,101030.36
2022-12-18T04:45:34.757Z,101043.94
2022-12-18T04:50:37.829Z,101051.77
2022-12-18T04:55:40.851Z,101057.52
2022-12-18T05:00:44.754Z,101064.08
2022-12-18T05:05:53.956Z,101067.84
2022-12-18T05:11:04.712Z,101071.91
2022-12-18T05:16:09.223Z,101073.61
2022-12-18T05:21:12.642Z,101082.80
2022-12-18T05:26:19.330Z,101093.21
2022-12-18T05:31:22.337Z,101100.03
2022-12-18T05:36:25.402Z,101107.27
2022-12-18T05:41:29.783Z,101117.21
2022-12-18T05:46:32.910Z,101121.55
2022-12-18T05:51:36.051Z,101131.34
2022-12-18T05:56:42.951Z,101132.45
2022-12-18T06:01:48.765Z,101138.05
2022-12-18T06:06:51.984Z,101144.30
2022-12-18T06:11:55.004Z,101156.83
2022-12-18T06:16:57.987Z,101161.08
2022-12-18T06:22:00.976Z,101172.31
2022-12-18T06:27:04.039Z,101171.52
2022-12-18T06:32:07.269Z,101179.61
2022-12-18T06:37:10.510Z,101186.84
2022-12-18T06:42:13.489Z,101193.66
2022-12-18T06:47:16.581Z,101199.73
2022-12-18T06:52:19.566Z,101204.67
2022-12-18T06:57:22.589Z,101221.02
2022-12-18T07:02:25.793Z,101230.76
2022-12-18T07:07:28.950Z,101242.23
2022-12-18T07:12:31.950Z,101247.91
2022-12-18T07:17:35.339Z,101255.17
2022-12-18T07:22:38.351Z,101264.42
2022-12-18T07:27:41.346Z,101268.27
2022-12-18T07:32:44.305Z,101277.23
2022-12-18T07:37:47.299Z,101289.52
2022-12-18T07:42:50.251Z,101295.75
2022-12-18T07:47:53.218Z,101297.73
2022-12-18T07:52:56.204Z,101301.02
2022-12-18T07:58:03.730Z,101306.77
2022-12-18T08:03:06.776Z,101316.41
2022-12-18T08:08:09.864Z,101321.45
2022-12-18T08:13:12.831Z,101330.84
2022-12-18T08:18:15.831Z,101336.50
2022-12-18T08:23:18.811Z,101341.04
2022-12-18T08:28:21.800Z,101341.81
2022-12-18T08:33:25.208Z,101350.79
2022-12-18T08:38:28.978Z,101361.53
2022-12-18T08:43:50.779Z,101367.35
2022-12-18T08:48:56.031Z,101380.32
2022-12-18T08:53:59.148Z,101379.63
2022-12-18T08:59:02.716Z,101383.70
2022-12-18T09:04:05.805Z,101389.70
2022-12-18T09:09:10.983Z,101387.32
2022-12-18T09:14:13.987Z,101396.55
2022-12-18T09:19:16.988Z,101404.69
2022-12-18T09:24:20.040Z,101406.42
2022-12-18T09:29:23.034Z,101410.98
2022-12-18T09:34:26.019Z,101412.81
2022-12-18T09:39:29.483Z,101420.47
2022-12-18T09:44:45.793Z,101418.73
2022-12-18T09:49:55.092Z,101415.66
2022-12-18T09:55:13.007Z,101412.17
2022-12-18T10:00:26.893Z,101419.70
2022-12-18T10:05:39.044Z,101416.81
2022-12-18T10:10:55.866Z,101420.02
2022-12-18T10:16:11.420Z,101424.67
2022-12-18T10:21:31.312Z,101437.18
2022-12-18T10:26:34.379Z,101450.04
2022-12-18T10:31:37.414Z,101450.06
2022-12-18T10:36:40.629Z,101450.96
2022-12-18T10:41:43.694Z,101454.96
2022-12-18T10:46:50.229Z,101457.61
2022-12-18T10:52:07.152Z,101451.48
2022-12-18T10:57:31.035Z,101446.16
2022-12-18T11:02:39.871Z,101442.75
2022-12-18T11:07:51.942Z,101450.83
2022-12-18T11:12:55.034Z,101464.73
2022-12-18T11:17:58.069Z,101462.27
2022-12-18T11:23:15.190Z,101457.58
2022-12-18T11:28:42.614Z,101452.67
2022-12-18T11:34:28.067Z,101453.32
2022-12-18T11:39:42.233Z,101456.46
2022-12-18T11:44:53.947Z,101450.17
2022-12-18T11:50:02.425Z,101453.73
2022-12-18T11:55:30.184Z,101453.15
2022-12-18T12:00:43.460Z,101454.73
2022-12-18T12:06:11.640Z,101458.73
2022-12-18T12:11:55.967Z,101468.52
2022-12-18T12:17:06.092Z,101469.66
2022-12-18T12:22:36.233Z,101471.08
2022-12-18T12:28:21.621Z,101473.22
2022-12-18T12:33:54.936Z,101481.98
2022-12-18T12:39:03.070Z,101490.08
2022-12-18T12:44:15.180Z,101499.30
2022-12-18T12:49:25.464Z,101513.35
2022-12-18T12:54:29.886Z,101523.44
2022-12-18T13:00:00.540Z,101535.45
2022-12-18T13:05:46.659Z,101549.39
2022-12-18T13:10:50.483Z,101555.75
2022-12-18T13:16:09.269Z,101562.52
2022-12-18T13:21:34.710Z,101559.98
2022-12-18T13:26:37.822Z,101565.80
2022-12-18T13:31:41.176Z,101568.34
2022-12-18T13:36:46.783Z,101584.08
2022-12-18T13:42:31.120Z,101588.57
2022-12-18T13:47:41.511Z,101589.99
2022-12-18T13:52:44.822Z,101586.60
2022-12-18T13:57:48.066Z,101588.55
2022-12-18T14:02:52.294Z,101589.32
2022-12-18T14:08:00.649Z,101586.03
2022-12-18T14:13:09.422Z,101591.59
2022-12-18T14:18:37.984Z,101589.82
2022-12-18T14:23:43.785Z,101601.98
2022-12-18T14:28:47.526Z,101608.47
2022-12-18T14:33:52.787Z,101614.23
2022-12-18T14:38:59.058Z,101624.17
2022-12-18T14:44:12.311Z,101635.47
2022-12-18T14:49:33.693Z,101628.42
2022-12-18T14:54:38.600Z,101633.83
2022-12-18T14:59:41.736Z,101641.65
2022-12-18T15:04:45.153Z,101640.91
2022-12-18T15:10:18.738Z,101648.04
2022-12-18T15:15:34.301Z,101654.65
2022-12-18T15:20:43.629Z,101660.52
2022-12-18T15:25:49.062Z,101657.46
2022-12-18T15:31:09.903Z,101667.85
2022-12-18T15:36:26.179Z,101674.19
2022-12-18T15:41:35.220Z,101670.77
2022-12-18T15:46:39.204Z,101674.76
2022-12-18T15:51:43.563Z,101669.04
2022-12-18T15:57:06.745Z,101667.01
2022-12-18T16:02:19.331Z,101679.02
2022-12-18T16:07:25.018Z,101686.29
2022-12-18T16:12:28.771Z,101691.89
2022-12-18T16:17:32.293Z,101694.28
2022-12-18T16:22:35.452Z,101699.52
2022-12-18T16:27:38.438Z,101701.61
2022-12-18T16:32:41.464Z,101702.84
2022-12-18T16:37:45.129Z,101698.52
2022-12-18T16:42:48.160Z,101697.30
2022-12-18T16:47:51.162Z,101706.35
2022-12-18T16:52:54.158Z,101716.11
2022-12-18T16:57:57.144Z,101719.60
2022-12-18T17:03:00.221Z,101718.77
2022-12-18T17:08:04.128Z,101721.91
2022-12-18T17:13:07.277Z,101726.19
2022-12-18T17:18:10.280Z,101730.30
2022-12-18T17:23:13.314Z,101729.95
2022-12-18T17:28:16.392Z,101723.53
2022-12-18T17:33:20.219Z,101715.14
2022-12-18T17:38:23.322Z,101706.94
2022-12-18T17:43:26.427Z,101709.73
2022-12-18T17:48:30.588Z,101710.71
2022-12-18T17:53:34.684Z,101709.65
2022-12-18T17:58:38.100Z,101718.09
2022-12-18T18:03:42.571Z,101734.30
2022-12-18T18:08:46.053Z,101751.02
2022-12-18T18:14:01.405Z,101762.52
2022-12-18T18:19:08.864Z,101772.23
2022-12-18T18:24:15.608Z,101765.96
2022-12-18T18:29:22.644Z,101762.25
2022-12-18T18:34:29.478Z,101767.73
2022-12-18T18:39:32.953Z,101753.98
2022-12-18T18:44:36.083Z,101750.14
2022-12-18T18:49:39.163Z,101745.96
2022-12-18T18:55:03.619Z,101738.38
2022-12-18T19:00:06.936Z,101741.44
2022-12-18T19:05:10.232Z,101750.39
2022-12-18T19:10:13.397Z,101740.52
2022-12-18T19:15:16.503Z,101758.42
2022-12-18T19:20:19.916Z,101768.27
2022-12-18T19:25:40.723Z,101772.20
2022-12-18T19:30:45.788Z,101774.73
2022-12-18T19:35:50.274Z,101778.94
2022-12-18T19:40:53.639Z,101784.33
2022-12-18T19:45:56.832Z,101782.52
2022-12-18T19:51:06.891Z,101773.61
2022-12-18T19:56:14.029Z,101773.76
2022-12-18T20:01:19.849Z,101777.33
2022-12-18T20:06:48.799Z,101766.16
2022-12-18T20:11:52.215Z,101767.80
2022-12-18T20:16:56.413Z,101775.57
2022-12-18T20:21:59.960Z,101775.27
2022-12-18T20:27:03.169Z,101775.81
2022-12-18T20:32:06.721Z,101776.89
2022-12-18T20:37:10.141Z,101784.48
2022-12-18T20:42:15.253Z,101786.63
2022-12-18T20:47:18.373Z,101788.38
2022-12-18T20:52:22.289Z,101783.77
2022-12-18T20:57:26.926Z,101786.10
2022-12-18T21:02:30.499Z,101791.27
2022-12-18T21:07:33.752Z,101802.98
2022-12-18T21:12:45.307Z,101809.38
2022-12-18T21:18:02.113Z,101808.13
2022-12-18T21:23:16.049Z,101799.99
2022-12-18T21:28:19.865Z,101794.07
2022-12-18T21:33:22.971Z,101788.16
2022-12-18T21:38:28.147Z,101788.35
2022-12-18T21:43:50.092Z,101779.36
2022-12-18T21:48:53.177Z,101772.52
2022-12-18T21:53:57.107Z,101773.59
2022-12-18T21:59:00.038Z,101766.21
2022-12-18T22:04:03.154Z,101758.92
2022-12-18T22:09:06.840Z,101744.14
2022-12-18T22:14:10.551Z,101727.52
2022-12-18T22:19:14.870Z,101717.36
2022-12-18T22:24:29.408Z,101702.17
2022-12-18T22:29:51.203Z,101699.12
2022-12-18T22:34:54.206Z,101706.09
2022-12-18T22:39:57.313Z,101710.87
2022-12-18T22:45:01.141Z,101717.10
2022-12-18T22:50:05.998Z,101717.35
2022-12-18T22:55:09.703Z,101712.39
2022-12-18T23:00:13.966Z,101719.07
2022-12-18T23:05:17.280Z,101723.71
2022-12-18T23:10:20.556Z,101723.66
2022-12-18T23:15:28.125Z,101724.86
2022-12-18T23:20:31.582Z,101717.95
2022-12-18T23:25:34.892Z,101715.74
2022-12-18T23:30:37.933Z,101717.48
2022-12-18T23:35:41.001Z,101707.41
2022-12-18T23:40:44.112Z,101694.73
2022-12-18T23:45:53.969Z,101698.91
2022-12-18T23:50:58.727Z,101692.38
2022-12-18T23:56:03.367Z,101680.48
